Winnipeg / St. Andrews Airport

CYAV · Manitoba, Canada

METAR historie CYAV · Winnipeg / St. Andrews Airport

Hieronder zie je METAR's van de afgelopen dagen. Kies een jaar om door oudere METAR's te bladeren, vanaf het jaar 2007.

16 juli 2024

Tijd Code Weer Temp. Zicht Plafond Wind METAR/SPECI
09:00
V
17 °C 15 mi - 340° 340° 10 kt METAR CYWG 161400Z 34010KT 15SM SCT039 17/14 A2994 RMK SC3 SLP143 DENSITY ALT 1200FT
08:00
V
16 °C 15 mi - 290° 290° 7 kt METAR CYWG 161300Z 29007KT 15SM FEW030TCU SCT051 SCT110 16/15 A2992 RMK TCU1SC2AC1 SLP138 DENSITY ALT 1100FT
07:00
V
15 °C 15 mi - 270° 270° 5 kt METAR CYWG 161200Z 27005KT 15SM FEW051 SCT110 SCT250 15/15 A2991 RMK SC2AC1CI1 SLP133 DENSITY ALT 1000FT
06:00
V
15 °C 15 mi 7.000 ft 240° 240° 3 kt METAR CYWG 161100Z 24003KT 230V330 15SM SCT050 BKN070 BKN095 15/15 A2991 RMK SC3AC2AC1 SLP132 DENSITY ALT 1000FT
05:48
V
15 °C 15 mi 4.000 ft 360° 360° 2 kt METAR CYWG 161048Z 36002KT 15SM BKN040 BKN088 15/14 A2991 RMK SC5AC2 SLP131 DENSITY ALT 1000FT
05:35
M
15 °C 3 mi 4.100 ft 360° 360° 5 kt METAR CYWG 161035Z 36005KT 3SM R31/5500VP6000FT/D -SHRA BKN041 15/14 A2991 RMK SC7 CVCTV CLD EMBD PRESRR SLP132 DENSITY ALT 1000FT
05:30
I
15 °C 2½ mi 4.500 ft 360° 360° 4 kt METAR CYWG 161030Z 36004KT 300V010 2 1/2SM +SHRA BKN045 15/14 A2991 RMK SC7 CVCTV CLD EMBD PRESRR SLP132 DENSITY ALT 1000FT
05:28
V
15 °C 15 mi 5.000 ft 350° 350° 5 kt METAR CYWG 161028Z 35005KT 220V360 15SM SHRA BKN050 15/14 A2991 RMK SC7 CVCTV CLD EMBD PRESRR SLP131 DENSITY ALT 1000FT
05:00
V
15 °C 15 mi 7.100 ft 180° 180° 4 kt METAR CYWG 161000Z 18004KT 15SM SCT043 BKN071 15/14 A2989 RMK SC4AC3 SLP127 DENSITY ALT 1000FT
04:00
V
15 °C 15 mi 10.000 ft 360° 360° 0 kt METAR CYWG 160900Z 00000KT 15SM FEW004 SCT051 BKN100 15/14 A2989 RMK CF1SC4AC3 CF TR SLP127 DENSITY ALT 1000FT
03:39
V
15 °C 15 mi 8.500 ft 260° 260° 3 kt METAR CYWG 160839Z 26003KT 200V290 15SM FEW049 BKN085 15/14 A2989 RMK SC2AC5 SLP125 DENSITY ALT 1100FT
03:27
V
15 °C 15 mi 7.800 ft Var Var 2 kt METAR CYWG 160827Z VRB02KT 15SM -RA SCT048 BKN078 15/14 A2989 RMK SC3AC4 SLP126 DENSITY ALT 1100FT
03:22
V
15 °C 15 mi 5.200 ft 280° 280° 3 kt METAR CYWG 160822Z 28003KT 240V320 15SM BKN052 15/14 A2990 RMK SC7 SLP130 DENSITY ALT 1100FT
03:00
V
15 °C 6 mi 6.800 ft 340° 340° 6 kt METAR CYWG 160800Z 34006KT 6SM RA BR OVC068 15/15 A2989 RMK AC8 SLP125 DENSITY ALT 1100FT
02:53
V
16 °C 13 mi 6.800 ft 330° 330° 6 kt METAR CYWG 160753Z 33006KT 13SM -RA BKN068 16/15 A2989 RMK AC7 SLP123 DENSITY ALT 1100FT
02:00
V
15 °C 15 mi 9.700 ft 360° 360° 0 kt METAR CYWG 160700Z 00000KT 15SM BKN097 15/15 A2987 RMK AC7 SLP118 DENSITY ALT 1100FT
01:00
V
15 °C 15 mi 9.300 ft 260° 260° 2 kt METAR CYWG 160600Z 26002KT 15SM BKN093 15/14 A2986 RMK AC7 SLP115 DENSITY ALT 1100FT
00:00
V
13 °C 15 mi 8.400 ft 310° 310° 3 kt METAR CYWG 160500Z 31003KT 15SM BKN084 13/13 A2986 RMK AC5 SLP117

15 juli 2024

Tijd Code Weer Temp. Zicht Plafond Wind METAR/SPECI
23:00
V
15 °C 15 mi - 010° 010° 3 kt METAR CYWG 160400Z 01003KT 15SM FEW044 SCT250 15/13 A2986 RMK SC2CI1 SLP117 DENSITY ALT 1100FT
22:00
V
17 °C 15 mi - 040° 040° 5 kt METAR CYWG 160300Z 04005KT 15SM FEW043 SCT075 SCT250 17/13 A2985 RMK SC2AC1CI1 SLP114 DENSITY ALT 1300FT
21:18
V
18 °C 15 mi 7.600 ft 040° 040° 7 kt METAR CYWG 160218Z 04007KT 15SM SCT045 BKN076 BKN250 18/13 A2985 RMK SC4AC2CI1 SLP113 DENSITY ALT 1500FT
21:09
V
19 °C 15 mi 7.200 ft 040° 040° 8 kt METAR CYWG 160209Z 04008KT 15SM -SHRA FEW030TCU SCT044 BKN072 BKN250 19/14 A2985 RMK TCU2SC2AC1CI1 SLP111 DENSITY ALT 1500FT
21:00
V
19 °C 15 mi 7.200 ft 030° 030° 9 kt METAR CYWG 160200Z 03009KT 15SM FEW030TCU SCT044 BKN072 BKN250 19/13 A2985 RMK TCU2SC2AC1CI1 SLP112 DENSITY ALT 1600FT
20:00
V
20 °C 15 mi - 030° 030° 10 kt METAR CYWG 160100Z 03010KT 15SM FEW045TCU FEW066 SCT240 SCT260 20/15 A2984 RMK TCU2ACC1CI1CI1 ACC TR SLP108 DENSITY ALT 1700FT
19:00
V
22 °C 15 mi - 330° 330° 10 - 15 kt METAR CYWG 160000Z 33010G15KT 15SM FEW040TCU SCT260 22/14 A2983 RMK TCU1CI2 CF ASOCTD SLP105 DENSITY ALT 2000FT
18:00
V
22 °C 15 mi - 350° 350° 10 kt METAR CYWG 152300Z 35010KT 330V040 15SM SCT037TCU SCT077 SCT260 22/15 A2983 RMK TCU3AC1CI1 AC TR TCU ALQDS CF ASOCTD SLP105 DENSITY ALT 1900FT
17:00
V
23 °C 15 mi - 340° 340° 13 kt METAR CYWG 152200Z 34013KT 15SM SCT037TCU SCT065 SCT080 SCT260 23/15 A2983 RMK TCU3SC1AC1CI1 AC TR CI TR SLP103 DENSITY ALT 2100FT
16:00
V
23 °C 15 mi - 350° 350° 13 kt METAR CYWG 152100Z 35013KT 15SM SCT035TCU SCT085 SCT260 23/15 A2983 RMK TCU3AC1CI1 CI TR TCU ALQDS SLP103 DENSITY ALT 2100FT
15:00
V
23 °C 15 mi 8.700 ft 340° 340° 10 - 16 kt METAR CYWG 152000Z 34010G16KT 15SM SCT032TCU BKN087 23/17 A2981 RMK TCU4AC2 SLP098 DENSITY ALT 2100FT
14:00
V
22 °C 15 mi 3.500 ft 330° 330° 12 kt METAR CYWG 151900Z 33012KT 15SM BKN035TCU BKN085 BKN260 22/16 A2981 RMK TCU5AC2CI1 CI TR PSBL CB CLDS DVLPG OHD SLP097 DENSITY ALT 2000FT
13:00
V
23 °C 15 mi - 320° 320° 10 kt METAR CYWG 151800Z 32010KT 270V350 15SM SCT030TCU SCT070 SCT300 23/15 A2981 RMK TCU4ACC1CI1 ACC TR CI TR TCU ALQDS SLP096 DENSITY ALT 2100FT
12:00
M
22 °C 12 mi 2.500 ft 360° 360° 7 kt METAR CYWG 151700Z 36007KT 12SM BKN025TCU BKN060 BKN085 BKN260 22/16 A2981 RMK TCU6SC1ACC1CI1 SC TR ACC TR CI TR TCU ALQDS DIST HZ ALL HRZNS SLP097 DENSITY ALT 1900FT
11:00
V
21 °C 14 mi - 010° 010° 9 kt METAR CYWG 151600Z CCA 01009KT 14SM FEW016TCU FEW090 21/17 A2981 RMK TCU2ACC1 ACC TR TCU DVLPG ALQDS CU ASOCTD SLP097 DENSITY ALT 1800FT
10:00
V
20 °C 9 mi - 330° 330° 10 kt METAR CYWG 151500Z 33010KT 9SM FEW008 SCT013 SCT018CB SCT050 SCT200 20/18 A2981 RMK CF2CU1CB1SC1CI1 CB TR SC TR CI TR DIST BR ALL HRZNS CB NE-E MOV E SLP099 DENSITY ALT 1700FT
09:55
V
19 °C 13 mi - 330° 330° 10 kt METAR CYWG 151455Z 33010KT 13SM FEW008 SCT013CB SCT090 SCT200 19/18 A2981 RMK CF2CB1ACC1CI1 ACC TR VIS LWR NE-E DIST SH CB CLD NE-E MOV E SLP099 DENSITY ALT 1600FT
09:32
V
18 °C 12 mi - 280° 280° 4 kt METAR CYWG 151432Z 28004KT 12SM SCT013CB SCT025 SCT075 SCT095 SCT200 18/17 A2981 RMK CB3SC1ACC1AC1CI1 ACC TR AC TR CI TR OCNL-SHRA TCU CLD DVLPG RPDLY INTO CB NE-E MOV E SLP098 DENSITY ALT 1400FT
09:25
M
17 °C 12 mi 1.300 ft 300° 300° 6 kt METAR CYWG 151425Z 30006KT 12SM BKN013 BKN025TCU BKN075 BKN095 17/17 A2981 RMK SC5TCU1ACC1AC1 TCU TR AC TR OCNL-SHRA TCU CLD NE SLP099 DENSITY ALT 1400FT
09:00
V
17 °C 9 mi 7.500 ft Var Var 2 kt METAR CYWG 151400Z VRB02KT 9SM -SHRA FEW010 FEW025TCU SCT040 BKN075 BKN095 17/16 A2980 RMK CF1TCU1SC2AC1AC1 TCU NE-SE DIST TCU TOPS SW-NW SLP094 DENSITY ALT 1400FT
08:39
M
17 °C 6 mi 1.500 ft 310° 310° 5 kt METAR CYWG 151339Z 31005KT 6SM -SHRA BR BKN015 BKN055TCU BKN095 17/16 A2980 RMK SC5TCU1AC2 TCU TR W SLP097 DENSITY ALT 1400FT
08:00
V
17 °C 15 mi 9.900 ft 030° 030° 2 kt METAR CYWG 151300Z 03002KT 15SM -SHRA FEW029TCU OVC099 17/16 A2978 RMK TCU2AS6 SLP087 DENSITY ALT 1400FT
07:00
V
17 °C 5 mi 10.000 ft 040° 040° 9 kt METAR CYWG 151200Z 04009KT 5SM -SHRA FEW004 SCT029CB OVC100 17/16 A2976 RMK SC1CB4AS4 SC TR CB E MOV E SLP081 DENSITY ALT 1400FT
06:40
L
17 °C 5 mi 400 ft 050° 050° 12 kt METAR CYWG 151140Z 05012KT 5SM -TSRA BKN004 BKN029CB OVC089 17/17 A2976 RMK SC5CB2AC1 CB OHD MOV E OCNL LTGCGICCC NE-SE SLP081 DENSITY ALT 1400FT
06:25
L
17 °C 4 mi 400 ft 010° 010° 10 - 21 kt METAR CYWG 151125Z 01010G21KT 330V030 4SM TSRA BKN004 OVC029CB 17/17 A2977 RMK SC6CB2 CB OHD MOV E FRQ LTGICCC S SLP082 DENSITY ALT 1400FT
06:18
L
17 °C 3 mi 400 ft 340° 340° 15 - 21 kt METAR CYWG 151118Z CCA 34015G21KT 3SM +TSRA BKN004CB OVC095 17/17 A2977 RMK CB7AS1 CB OHD MOV E FRQ LTGICCC OHD PRESRR SLP084 DENSITY ALT 1400FT
06:07
L
17 °C 6 mi 300 ft 360° 360° 11 kt METAR CYWG 151107Z 36011KT 6SM -TSRA BKN003CB OVC100 17/17 A2976 RMK CB6AS2 CB W MOV E OCNL LTGIC W AND NE SLP078 DENSITY ALT 1400FT
05:54
L
17 °C 6 mi 200 ft 350° 350° 10 kt METAR CYWG 151054Z 35010KT 6SM -RA BKN002 OVC099 17/17 A2975 RMK SC5AC3 SLP077 DENSITY ALT 1500FT
05:16
V
18 °C 5 mi 6.500 ft 050° 050° 6 kt METAR CYWG 151016Z 05006KT 5SM -SHRA FEW004 BKN065CB 18/18 A2974 RMK SF1CB6 CB W MOV E OCNL LTNG W SLP072 DENSITY ALT 1600FT
05:00
V
18 °C 10 mi 11.000 ft 050° 050° 3 kt METAR CYWG 151000Z 05003KT 340V070 10SM SHRA SCT071TCU BKN110 18/18 A2975 RMK TCU3AC4 SLP075 DENSITY ALT 1500FT
05:02
V
18 °C 12 mi 11.000 ft Var Var 2 kt METAR CYWG 151002Z VRB02KT 12SM -SHRA SCT071TCU BKN110 18/18 A2975 RMK TCU3AC4 SLP075 DENSITY ALT 1500FT
04:53
V
18 °C 15 mi 11.000 ft 360° 360° 5 kt METAR CYWG 150953Z 36005KT 15SM -RA BKN110 OVC150 18/18 A2975 RMK AC7AC1 SLP076 DENSITY ALT 1500FT
04:00
V
18 °C 15 mi 19.000 ft 250° 250° 3 kt METAR CYWG 150900Z 25003KT 190V270 15SM SCT013 OVC190 18/18 A2975 RMK SC4AC4 SLP076 DENSITY ALT 1600FT
03:48
M
18 °C 15 mi 1.300 ft 360° 360° 0 kt METAR CYWG 150848Z 00000KT 15SM OVC013 18/18 A2975 RMK SC8 SLP076 DENSITY ALT 1600FT
03:00
V
18 °C 15 mi 13.000 ft 300° 300° 3 kt METAR CYWG 150800Z 30003KT 250V340 15SM BKN130 18/18 A2976 RMK AC7 SLP080 DENSITY ALT 1600FT
02:00
V
18 °C 15 mi 13.000 ft Var Var 2 kt METAR CYWG 150700Z VRB02KT 15SM BKN130 18/18 A2977 RMK AC7 SLP083 DENSITY ALT 1600FT
01:00
V
19 °C 15 mi 17.000 ft 010° 010° 3 kt METAR CYWG 150600Z 01003KT 15SM BKN170 19/18 A2977 RMK AC7 SLP084 DENSITY ALT 1600FT
00:00
V
20 °C 15 mi 15.000 ft 250° 250° 7 kt METAR CYWG 150500Z 25007KT 15SM BKN150 OVC180 20/18 A2977 RMK AC5AC3 SLP083 DENSITY ALT 1800FT

14 juli 2024

Tijd Code Weer Temp. Zicht Plafond Wind METAR/SPECI
23:00
V
19 °C 15 mi 16.000 ft 190° 190° 5 kt METAR CYWG 150400Z 19005KT 15SM BKN160 BKN220 19/19 A2979 RMK AC5CI1 CI TR SLP090 DENSITY ALT 1700FT
22:00
V
19 °C 15 mi 11.000 ft 180° 180° 6 kt METAR CYWG 150300Z 18006KT 15SM FEW030 BKN110 19/18 A2981 RMK CU1AC4 SLP096 DENSITY ALT 1600FT
21:00
V
19 °C 15 mi 13.000 ft 050° 050° 4 kt METAR CYWG 150200Z 05004KT 030V110 15SM SCT025CB BKN130 BKN220 19/17 A2980 RMK CB4AC2CI1 CI TR CB N-NE MOV E SLP095 DENSITY ALT 1600FT
20:44
V
18 °C 15 mi 10.000 ft 060° 060° 10 - 17 kt METAR CYWG 150144Z 06010G17KT 15SM SCT025CB BKN100 BKN220 18/17 A2980 RMK CB4AC2CI1 CI TR CB N-NE MOV E PRESFR SLP096 DENSITY ALT 1500FT
20:30
V
18 °C 13 mi 5.000 ft 010° 010° 12 - 37 kt METAR CYWG 150130Z 01012G37KT 300V030 13SM R31/3000VP6000FT/N -TSRA SCT025CB BKN050 BKN100 BKN220 18/17 A2982 RMK CB4SC2AC1CI1 CI TR CB NE-SE MOV E OCNL LTGIC NE-SE NXT CB W-NW PRESRR SLP102 DENSITY ALT 1500FT
20:23
L
20 °C ⅝ mi 2.000 ft 320° 320° 29 - 37 kt METAR CYWG 150123Z 32029G37KT 200V340 5/8SM R31/P6000FT/D +TSRA BKN020CB OVC055 20/17 A2982 RMK CB5SC3 FC DSAPRD CB W-SE MOV E PRESRR SLP100 DENSITY ALT 1700FT
20:20
V
22 °C 8 mi 8.500 ft 320° 320° 26 - 33 kt METAR CYWG 150120Z 32026G33KT 200V330 8SM TSRA FC SCT055CB BKN085 OVC130 OVC220 22/17 A2980 RMK CB4AC2AC2CI1 CI TR FUNNEL CLD DVLPG NE MOV E OCNL LTGCGIC N-NE DIST ROTOR CLD DVLPG W SLP094 DENSITY ALT 2000FT
20:00
V
25 °C 13 mi 8.500 ft 190° 190° 8 kt METAR CYWG 150100Z 19008KT 13SM VCSH SCT060CB BKN085 BKN130 BKN240 25/17 A2980 RMK CB3AC2AC2CI1 CI TR CB W-N MOV SLW E SLP092 DENSITY ALT 2300FT
19:00
V
26 °C 15 mi 14.000 ft 160° 160° 8 kt METAR CYWG 150000Z 16008KT 15SM FEW040CB FEW060 SCT095 BKN140 26/17 A2982 RMK CB1SC1ACC1AC2 CB W- NW MOV E SLP101 DENSITY ALT 2400FT
18:00
V
26 °C 15 mi - 220° 220° 7 kt METAR CYWG 142300Z 22007KT 15SM FEW045 SCT085 SCT100 SCT160 SCT260 26/16 A2984 RMK CU1ACC3AC1AC1CI1 CU TR AC TR CI TR SLP108 DENSITY ALT 2400FT
17:00
V
26 °C 15 mi - 220° 220° 2 kt METAR CYWG 142200Z 22002KT 15SM FEW045 FEW095 FEW110 SCT130 SCT260 26/16 A2985 RMK CU1AC1AC1AC1CI1 CU TR CI TR SLP113 DENSITY ALT 2300FT
16:00
V
25 °C 15 mi 12.000 ft 270° 270° 3 kt METAR CYWG 142100Z 27003KT 230V290 15SM FEW045 FEW110 BKN120 BKN140 BKN200 25/16 A2987 RMK CU1AC1AC5AC1CI1 CU TR CI TR SLP118 DENSITY ALT 2200FT
15:00
V
25 °C 15 mi 18.000 ft 270° 270° 7 kt METAR CYWG 142000Z 27007KT 15SM FEW045 FEW170 BKN180 BKN200 25/14 A2988 RMK CU1AC1AC5CC1 CU TR SLP120 DENSITY ALT 2200FT
14:00
V
25 °C 15 mi - 270° 270° 5 kt METAR CYWG 141900Z 27005KT 240V310 15SM FEW043 FEW150 SCT160 SCT170 SCT260 25/16 A2989 RMK CU1AC1AC2AC1CI1 CU TR CI TR SLP124 DENSITY ALT 2200FT
13:00
V
25 °C 15 mi - 270° 270° 4 kt METAR CYWG 141800Z 27004KT 250V320 15SM FEW045 FEW065 FEW260 25/14 A2991 RMK CU1SC1CI1 CU TR SC TR CI TR CONTRAILS SLP129 DENSITY ALT 2200FT
12:00
V
24 °C 15 mi - 300° 300° 5 kt METAR CYWG 141700Z 30005KT 240V330 15SM FEW040 FEW100 FEW120 24/16 A2992 RMK CU1AC1AC1 CU TR AC TR AC TR CONTRAILS SLP133 DENSITY ALT 2100FT
11:00
V
24 °C 15 mi - 260° 260° 6 kt METAR CYWG 141600Z 26006KT 210V280 15SM FEW030 FEW110 24/16 A2992 RMK CU1AC1 CU TR AC TR SLP134 DENSITY ALT 2000FT
10:00
V
23 °C 12 mi - 240° 240° 6 kt METAR CYWG 141500Z 24006KT 180V250 12SM FEW085 FEW110 FEW120 FEW200 23/17 A2993 RMK AC1AC1AC1CC1 AC TR CC TR SLP137 DENSITY ALT 1900FT
09:00
V
21 °C 12 mi 12.000 ft 230° 230° 3 kt METAR CYWG 141400Z 23003KT 190V310 12SM FEW110 BKN120 21/17 A2993 RMK AC1AC5 DIST HRZN HZ SLP138 DENSITY ALT 1700FT
08:00
V
18 °C 12 mi - 290° 290° 4 kt METAR CYWG 141300Z 29004KT 12SM FEW180 18/17 A2992 RMK AC1 SLP136 DENSITY ALT 1400FT
07:00
V
16 °C 15 mi - 290° 290° 3 kt METAR CYWG 141200Z 29003KT 15SM FEW180 FEW250 16/16 A2992 RMK AC1CI1 AC TR CI TR SLP133 DENSITY ALT 1100FT
06:00
V
14 °C 15 mi - 290° 290° 3 kt METAR CYWG 141100Z 29003KT 15SM FEW250 14/14 A2991 RMK CI1 CI TR SLP132
05:00
V
15 °C 15 mi - 310° 310° 3 kt METAR CYWG 141000Z 31003KT 15SM FEW250 15/15 A2990 RMK CI1 CI TR SLP129 DENSITY ALT 1000FT
04:00
V
15 °C 15 mi - 280° 280° 3 kt METAR CYWG 140900Z 28003KT 15SM FEW250 15/15 A2990 RMK CI1 CI TR SLP127 DENSITY ALT 1000FT
03:00
V
17 °C 15 mi - 040° 040° 5 kt METAR CYWG 140800Z 04005KT 15SM SKC 17/16 A2988 RMK SLP121 DENSITY ALT 1300FT
02:00
V
18 °C 15 mi 5.300 ft 360° 360° 6 kt METAR CYWG 140700Z 36006KT 15SM BKN053 18/15 A2990 RMK SC6 SLP128 DENSITY ALT 1300FT
01:00
V
19 °C 15 mi 5.200 ft 340° 340° 7 kt METAR CYWG 140600Z 34007KT 15SM BKN052 19/16 A2991 RMK SC6 SLP130 DENSITY ALT 1500FT
Wijziging doorgeven